M.y. Libra Star — 3ALV — position and weather

sailwx.info

Track history (hours):
 
Tides and Currents Weather Stations Pressure Air Temp Water Temp Dewpoint Dewpoint Depression Visibility Wind Speed Wind Dir Waves Ship Positions

M.y. Libra Star

Last reported at 2015-Aug-01 02:25 UTC. Time now 2015-Aug-02 12:21 UTC.
Position N 42°25' E 008°20'.

Length 40 m; draft 3 m.

Type: Pleasure craft. MMSI: 254450000.

Date/timePositionNaut miles runAvg speedWind from/ knotsBaromVisibWave heightAir tempDewpointWater temp
2015-Aug-01 02:25N 42°25' E 008°20'1213.6
2015-Aug-01 01:31N 42°37' E 008°14'76 5.9
2015-Jul-31 12:33N 43°41' E 007°18'1 0.4
2015-Jul-31 09:23N 43°42' E 007°17'8 9.7
2015-Jul-31 08:33N 43°35' E 007°11'8 1.9
2015-Jul-31 04:32N 43°33' E 007°01'0 0.0
2015-Jul-31 03:20N 43°33' E 007°01'0 0.0
2015-Jul-31 02:32N 43°33' E 007°01'0 0.0
2015-Jul-31 01:29N 43°33' E 007°01'0 0.0
2015-Jul-31 00:26N 43°33' E 007°01'0 0.0
2015-Jul-30 23:26N 43°33' E 007°01'0 0.0
2015-Jul-30 22:32N 43°33' E 007°01'0 0.0
2015-Jul-30 21:26N 43°33' E 007°01'0 0.0
2015-Jul-30 20:32N 43°33' E 007°01'0 0.0
2015-Jul-30 19:32N 43°33' E 007°01'0 0.0
2015-Jul-30 18:32N 43°33' E 007°01'0 0.0
2015-Jul-30 17:26N 43°33' E 007°01'1 0.6
2015-Jul-30 16:33N 43°32' E 007°01'9 8.8
2015-Jul-30 15:33N 43°35' E 007°13'10 2.3
2015-Jul-30 11:13N 43°43' E 007°21'  
2015-Jul-25 03:15N 43°16' E 009°53'1014.5
2015-Jul-25 02:33N 43°26' E 009°47'1414.0
2015-Jul-25 01:33N 43°38' E 009°39'1414.0
2015-Jul-25 00:33N 43°51' E 009°31'1414.0
2015-Jul-24 23:33N 44°04' E 009°23'1413.8
2015-Jul-24 22:32N 44°17' E 009°14'2 0.3
2015-Jul-24 16:29N 44°18' E 009°13'1011.2
2015-Jul-24 15:33N 44°13' E 009°01'1413.8
2015-Jul-24 14:33N 44°07' E 008°44'1714.0
2015-Jul-24 13:23N 43°59' E 008°23'44 3.6
2015-Jul-24 01:16N 43°44' E 007°26'0 0.0
2015-Jul-24 00:15N 43°44' E 007°26'0 0.0
2015-Jul-23 20:25N 43°44' E 007°26'0 0.0
2015-Jul-22 20:33N 43°44' E 007°26'0 0.0
2015-Jul-22 19:25N 43°44' E 007°26'0 0.0
2015-Jul-22 18:33N 43°44' E 007°26'0 0.0
2015-Jul-22 17:31N 43°44' E 007°26'0 0.0
2015-Jul-22 14:24N 43°44' E 007°26'0 0.0
2015-Jul-22 13:14N 43°44' E 007°26'0 0.0
2015-Jul-22 12:26N 43°44' E 007°26'0 0.0
2015-Jul-22 11:28N 43°44' E 007°26'0 0.0
2015-Jul-22 10:25N 43°44' E 007°26'  
Track history (hours):
 
Tides and Currents Weather Stations Pressure Air Temp Water Temp Dewpoint Dewpoint Depression Visibility Wind Speed Wind Dir Waves Ship Positions

M.y. Libra Star

Last reported at 2015-Aug-01 02:25 UTC. Time now 2015-Aug-02 12:21 UTC.
Position N 42°25' E 008°20'.

Length 40 m; draft 3 m.

Type: Pleasure craft. MMSI: 254450000.

Date/timePositionNaut miles runAvg speedWind from/ knotsBaromVisibWave heightAir tempDewpointWater temp
2015-Aug-01 02:25N 42°25' E 008°20'1213.6
2015-Aug-01 01:31N 42°37' E 008°14'76 5.9
2015-Jul-31 12:33N 43°41' E 007°18'1 0.4
2015-Jul-31 09:23N 43°42' E 007°17'8 9.7
2015-Jul-31 08:33N 43°35' E 007°11'8 1.9
2015-Jul-31 04:32N 43°33' E 007°01'0 0.0
2015-Jul-31 03:20N 43°33' E 007°01'0 0.0
2015-Jul-31 02:32N 43°33' E 007°01'0 0.0
2015-Jul-31 01:29N 43°33' E 007°01'0 0.0
2015-Jul-31 00:26N 43°33' E 007°01'0 0.0
2015-Jul-30 23:26N 43°33' E 007°01'0 0.0
2015-Jul-30 22:32N 43°33' E 007°01'0 0.0
2015-Jul-30 21:26N 43°33' E 007°01'0 0.0
2015-Jul-30 20:32N 43°33' E 007°01'0 0.0
2015-Jul-30 19:32N 43°33' E 007°01'0 0.0
2015-Jul-30 18:32N 43°33' E 007°01'0 0.0
2015-Jul-30 17:26N 43°33' E 007°01'1 0.6
2015-Jul-30 16:33N 43°32' E 007°01'9 8.8
2015-Jul-30 15:33N 43°35' E 007°13'10 2.3
2015-Jul-30 11:13N 43°43' E 007°21'  
2015-Jul-25 03:15N 43°16' E 009°53'1014.5
2015-Jul-25 02:33N 43°26' E 009°47'1414.0
2015-Jul-25 01:33N 43°38' E 009°39'1414.0
2015-Jul-25 00:33N 43°51' E 009°31'1414.0
2015-Jul-24 23:33N 44°04' E 009°23'1413.8
2015-Jul-24 22:32N 44°17' E 009°14'2 0.3
2015-Jul-24 16:29N 44°18' E 009°13'1011.2
2015-Jul-24 15:33N 44°13' E 009°01'1413.8
2015-Jul-24 14:33N 44°07' E 008°44'1714.0
2015-Jul-24 13:23N 43°59' E 008°23'44 3.6
2015-Jul-24 01:16N 43°44' E 007°26'0 0.0
2015-Jul-24 00:15N 43°44' E 007°26'0 0.0
2015-Jul-23 20:25N 43°44' E 007°26'0 0.0
2015-Jul-22 20:33N 43°44' E 007°26'0 0.0
2015-Jul-22 19:25N 43°44' E 007°26'0 0.0
2015-Jul-22 18:33N 43°44' E 007°26'0 0.0
2015-Jul-22 17:31N 43°44' E 007°26'0 0.0
2015-Jul-22 14:24N 43°44' E 007°26'0 0.0
2015-Jul-22 13:14N 43°44' E 007°26'0 0.0
2015-Jul-22 12:26N 43°44' E 007°26'0 0.0
2015-Jul-22 11:28N 43°44' E 007°26'0 0.0
2015-Jul-22 10:25N 43°44' E 007°26'  

Dump ship's entire track history